sensor_id;sensor_type;location;lat;lon;timestamp;P1;durP1;ratioP1;P2;durP2;ratioP2
15049;SDS011;7622;42.724;23.250;2022-07-10T00:00:07;15.13;;;13.80;;
15049;SDS011;7622;42.724;23.250;2022-07-10T00:02:35;16.47;;;14.83;;
15049;SDS011;7622;42.724;23.250;2022-07-10T00:05:02;14.83;;;13.57;;
15049;SDS011;7622;42.724;23.250;2022-07-10T00:07:29;15.83;;;14.20;;
15049;SDS011;7622;42.724;23.250;2022-07-10T00:09:56;14.80;;;13.37;;
15049;SDS011;7622;42.724;23.250;2022-07-10T00:12:23;15.57;;;14.07;;
15049;SDS011;7622;42.724;23.250;2022-07-10T00:14:50;16.03;;;14.33;;
15049;SDS011;7622;42.724;23.250;2022-07-10T00:17:18;16.30;;;14.63;;
15049;SDS011;7622;42.724;23.250;2022-07-10T00:19:45;15.20;;;13.87;;
15049;SDS011;7622;42.724;23.250;2022-07-10T00:22:12;15.83;;;14.43;;
15049;SDS011;7622;42.724;23.250;2022-07-10T00:24:38;14.43;;;13.20;;
15049;SDS011;7622;42.724;23.250;2022-07-10T00:27:05;15.60;;;14.30;;
15049;SDS011;7622;42.724;23.250;2022-07-10T00:29:32;16.23;;;14.77;;
15049;SDS011;7622;42.724;23.250;2022-07-10T00:31:59;16.40;;;15.00;;
15049;SDS011;7622;42.724;23.250;2022-07-10T00:34:27;16.40;;;14.67;;
15049;SDS011;7622;42.724;23.250;2022-07-10T00:36:54;16.27;;;14.80;;
15049;SDS011;7622;42.724;23.250;2022-07-10T00:39:20;17.00;;;15.30;;
15049;SDS011;7622;42.724;23.250;2022-07-10T00:41:47;16.20;;;14.77;;
15049;SDS011;7622;42.724;23.250;2022-07-10T00:44:14;16.13;;;14.47;;
15049;SDS011;7622;42.724;23.250;2022-07-10T00:46:41;15.93;;;14.40;;
15049;SDS011;7622;42.724;23.250;2022-07-10T00:49:07;16.73;;;15.23;;
15049;SDS011;7622;42.724;23.250;2022-07-10T00:51:36;15.40;;;13.80;;
15049;SDS011;7622;42.724;23.250;2022-07-10T00:54:03;16.17;;;14.53;;
15049;SDS011;7622;42.724;23.250;2022-07-10T00:56:31;15.30;;;13.97;;
15049;SDS011;7622;42.724;23.250;2022-07-10T00:58:58;16.83;;;14.57;;
15049;SDS011;7622;42.724;23.250;2022-07-10T01:01:25;16.40;;;14.90;;
15049;SDS011;7622;42.724;23.250;2022-07-10T01:03:51;15.07;;;13.57;;
15049;SDS011;7622;42.724;23.250;2022-07-10T01:06:18;15.77;;;14.30;;
15049;SDS011;7622;42.724;23.250;2022-07-10T01:08:46;15.17;;;13.67;;
15049;SDS011;7622;42.724;23.250;2022-07-10T01:11:14;16.33;;;13.83;;
15049;SDS011;7622;42.724;23.250;2022-07-10T01:13:41;14.13;;;12.83;;
15049;SDS011;7622;42.724;23.250;2022-07-10T01:16:09;14.57;;;13.17;;
15049;SDS011;7622;42.724;23.250;2022-07-10T01:18:36;14.47;;;13.17;;
15049;SDS011;7622;42.724;23.250;2022-07-10T01:21:04;14.63;;;13.20;;
15049;SDS011;7622;42.724;23.250;2022-07-10T01:23:31;14.47;;;13.23;;
15049;SDS011;7622;42.724;23.250;2022-07-10T01:26:00;14.27;;;12.87;;
15049;SDS011;7622;42.724;23.250;2022-07-10T01:28:27;14.23;;;12.93;;
15049;SDS011;7622;42.724;23.250;2022-07-10T01:30:56;13.90;;;12.60;;
15049;SDS011;7622;42.724;23.250;2022-07-10T01:33:23;14.33;;;13.13;;
15049;SDS011;7622;42.724;23.250;2022-07-10T01:35:50;14.17;;;12.77;;
15049;SDS011;7622;42.724;23.250;2022-07-10T01:38:19;13.30;;;12.17;;
15049;SDS011;7622;42.724;23.250;2022-07-10T01:40:45;13.80;;;12.50;;
15049;SDS011;7622;42.724;23.250;2022-07-10T01:43:12;14.23;;;12.57;;
15049;SDS011;7622;42.724;23.250;2022-07-10T01:45:39;13.97;;;12.63;;
15049;SDS011;7622;42.724;23.250;2022-07-10T01:48:05;13.60;;;12.43;;
15049;SDS011;7622;42.724;23.250;2022-07-10T01:50:32;13.53;;;12.33;;
15049;SDS011;7622;42.724;23.250;2022-07-10T01:52:59;14.23;;;12.93;;
15049;SDS011;7622;42.724;23.250;2022-07-10T01:55:27;13.73;;;12.47;;
15049;SDS011;7622;42.724;23.250;2022-07-10T01:57:54;14.43;;;13.03;;
15049;SDS011;7622;42.724;23.250;2022-07-10T02:00:21;13.60;;;12.40;;
15049;SDS011;7622;42.724;23.250;2022-07-10T02:02:49;13.73;;;12.40;;
15049;SDS011;7622;42.724;23.250;2022-07-10T02:05:30;12.63;;;11.60;;
15049;SDS011;7622;42.724;23.250;2022-07-10T02:08:00;14.97;;;13.47;;
15049;SDS011;7622;42.724;23.250;2022-07-10T02:10:32;13.10;;;11.83;;
15049;SDS011;7622;42.724;23.250;2022-07-10T02:12:59;13.70;;;12.50;;
15049;SDS011;7622;42.724;23.250;2022-07-10T02:15:26;13.80;;;12.70;;
15049;SDS011;7622;42.724;23.250;2022-07-10T02:17:53;14.97;;;13.57;;
15049;SDS011;7622;42.724;23.250;2022-07-10T02:20:19;14.23;;;12.97;;
15049;SDS011;7622;42.724;23.250;2022-07-10T02:22:46;14.87;;;13.30;;
15049;SDS011;7622;42.724;23.250;2022-07-10T02:25:13;15.40;;;13.80;;
15049;SDS011;7622;42.724;23.250;2022-07-10T02:27:41;14.97;;;13.57;;
15049;SDS011;7622;42.724;23.250;2022-07-10T02:30:08;14.60;;;13.30;;
15049;SDS011;7622;42.724;23.250;2022-07-10T02:32:35;14.80;;;13.03;;
15049;SDS011;7622;42.724;23.250;2022-07-10T02:35:02;14.47;;;13.07;;
15049;SDS011;7622;42.724;23.250;2022-07-10T02:37:29;13.13;;;11.80;;
15049;SDS011;7622;42.724;23.250;2022-07-10T02:39:56;13.33;;;12.23;;
15049;SDS011;7622;42.724;23.250;2022-07-10T02:42:26;13.67;;;12.60;;
15049;SDS011;7622;42.724;23.250;2022-07-10T02:44:57;13.07;;;11.97;;
15049;SDS011;7622;42.724;23.250;2022-07-10T02:47:24;13.90;;;12.73;;
15049;SDS011;7622;42.724;23.250;2022-07-10T02:49:50;14.30;;;13.00;;
15049;SDS011;7622;42.724;23.250;2022-07-10T02:52:17;13.23;;;12.03;;
15049;SDS011;7622;42.724;23.250;2022-07-10T02:54:44;13.70;;;12.50;;
15049;SDS011;7622;42.724;23.250;2022-07-10T02:57:11;14.17;;;12.57;;
15049;SDS011;7622;42.724;23.250;2022-07-10T02:59:38;13.60;;;12.30;;
15049;SDS011;7622;42.724;23.250;2022-07-10T03:02:06;14.67;;;13.17;;
15049;SDS011;7622;42.724;23.250;2022-07-10T03:04:33;13.10;;;11.90;;
15049;SDS011;7622;42.724;23.250;2022-07-10T03:07:00;13.53;;;12.10;;
15049;SDS011;7622;42.724;23.250;2022-07-10T03:09:27;13.57;;;12.17;;
15049;SDS011;7622;42.724;23.250;2022-07-10T03:11:54;14.13;;;12.83;;
15049;SDS011;7622;42.724;23.250;2022-07-10T03:14:20;13.43;;;12.10;;
15049;SDS011;7622;42.724;23.250;2022-07-10T03:16:47;13.33;;;12.13;;
15049;SDS011;7622;42.724;23.250;2022-07-10T03:19:15;12.50;;;11.40;;
15049;SDS011;7622;42.724;23.250;2022-07-10T03:21:42;14.53;;;11.87;;
15049;SDS011;7622;42.724;23.250;2022-07-10T03:24:09;13.80;;;12.33;;
15049;SDS011;7622;42.724;23.250;2022-07-10T03:26:36;14.20;;;12.80;;
15049;SDS011;7622;42.724;23.250;2022-07-10T03:29:03;13.53;;;12.33;;
15049;SDS011;7622;42.724;23.250;2022-07-10T03:31:30;13.80;;;12.40;;
15049;SDS011;7622;42.724;23.250;2022-07-10T03:33:57;13.00;;;11.93;;
15049;SDS011;7622;42.724;23.250;2022-07-10T03:36:25;13.73;;;12.33;;
15049;SDS011;7622;42.724;23.250;2022-07-10T03:38:52;13.13;;;12.07;;
15049;SDS011;7622;42.724;23.250;2022-07-10T03:41:18;13.67;;;12.20;;
15049;SDS011;7622;42.724;23.250;2022-07-10T03:43:45;14.27;;;12.13;;
15049;SDS011;7622;42.724;23.250;2022-07-10T03:46:12;14.00;;;12.70;;
15049;SDS011;7622;42.724;23.250;2022-07-10T03:48:39;13.50;;;12.10;;
15049;SDS011;7622;42.724;23.250;2022-07-10T03:51:05;12.97;;;11.87;;
15049;SDS011;7622;42.724;23.250;2022-07-10T03:53:33;17.97;;;12.43;;
15049;SDS011;7622;42.724;23.250;2022-07-10T03:56:01;13.00;;;11.80;;
15049;SDS011;7622;42.724;23.250;2022-07-10T03:58:28;13.40;;;12.20;;
15049;SDS011;7622;42.724;23.250;2022-07-10T04:00:54;13.90;;;11.80;;
15049;SDS011;7622;42.724;23.250;2022-07-10T04:03:21;13.17;;;11.90;;
15049;SDS011;7622;42.724;23.250;2022-07-10T04:05:48;11.43;;;10.43;;
15049;SDS011;7622;42.724;23.250;2022-07-10T04:08:14;12.23;;;11.13;;
15049;SDS011;7622;42.724;23.250;2022-07-10T04:10:42;12.93;;;11.87;;
15049;SDS011;7622;42.724;23.250;2022-07-10T04:13:09;11.53;;;10.40;;
15049;SDS011;7622;42.724;23.250;2022-07-10T04:15:36;11.63;;;10.63;;
15049;SDS011;7622;42.724;23.250;2022-07-10T04:18:03;11.13;;;10.10;;
15049;SDS011;7622;42.724;23.250;2022-07-10T04:20:29;11.10;;;9.87;;
15049;SDS011;7622;42.724;23.250;2022-07-10T04:22:56;10.03;;;9.23;;
15049;SDS011;7622;42.724;23.250;2022-07-10T04:25:23;9.77;;;9.07;;
15049;SDS011;7622;42.724;23.250;2022-07-10T04:27:51;9.50;;;8.77;;
15049;SDS011;7622;42.724;23.250;2022-07-10T04:30:18;10.43;;;9.70;;
15049;SDS011;7622;42.724;23.250;2022-07-10T04:32:45;9.90;;;9.07;;
15049;SDS011;7622;42.724;23.250;2022-07-10T04:35:12;9.73;;;8.87;;
15049;SDS011;7622;42.724;23.250;2022-07-10T04:37:39;9.90;;;9.17;;
15049;SDS011;7622;42.724;23.250;2022-07-10T04:40:09;9.20;;;8.33;;
15049;SDS011;7622;42.724;23.250;2022-07-10T04:42:38;11.33;;;8.30;;
15049;SDS011;7622;42.724;23.250;2022-07-10T04:45:06;9.37;;;8.47;;
15049;SDS011;7622;42.724;23.250;2022-07-10T04:47:33;10.60;;;9.40;;
15049;SDS011;7622;42.724;23.250;2022-07-10T04:50:00;10.47;;;8.83;;
15049;SDS011;7622;42.724;23.250;2022-07-10T04:52:27;10.87;;;8.90;;
15049;SDS011;7622;42.724;23.250;2022-07-10T04:54:54;10.00;;;9.10;;
15049;SDS011;7622;42.724;23.250;2022-07-10T04:57:24;10.30;;;9.13;;
15049;SDS011;7622;42.724;23.250;2022-07-10T04:59:52;9.83;;;8.93;;
15049;SDS011;7622;42.724;23.250;2022-07-10T05:02:21;10.17;;;8.70;;
15049;SDS011;7622;42.724;23.250;2022-07-10T05:04:47;9.33;;;8.63;;
15049;SDS011;7622;42.724;23.250;2022-07-10T05:07:14;8.87;;;8.03;;
15049;SDS011;7622;42.724;23.250;2022-07-10T05:09:41;8.37;;;7.67;;
15049;SDS011;7622;42.724;23.250;2022-07-10T05:12:08;9.40;;;8.73;;
15049;SDS011;7622;42.724;23.250;2022-07-10T05:14:34;8.30;;;7.70;;
15049;SDS011;7622;42.724;23.250;2022-07-10T05:17:01;8.60;;;7.93;;
15049;SDS011;7622;42.724;23.250;2022-07-10T05:19:29;9.17;;;8.50;;
15049;SDS011;7622;42.724;23.250;2022-07-10T05:21:56;7.50;;;6.80;;
15049;SDS011;7622;42.724;23.250;2022-07-10T05:24:23;7.90;;;7.40;;
15049;SDS011;7622;42.724;23.250;2022-07-10T05:26:50;9.57;;;7.27;;
15049;SDS011;7622;42.724;23.250;2022-07-10T05:29:17;8.40;;;7.60;;
15049;SDS011;7622;42.724;23.250;2022-07-10T05:31:43;7.53;;;7.13;;
15049;SDS011;7622;42.724;23.250;2022-07-10T05:34:10;7.50;;;6.90;;
15049;SDS011;7622;42.724;23.250;2022-07-10T05:36:38;7.57;;;6.87;;
15049;SDS011;7622;42.724;23.250;2022-07-10T05:39:05;8.77;;;7.03;;
15049;SDS011;7622;42.724;23.250;2022-07-10T05:41:32;7.40;;;6.80;;
15049;SDS011;7622;42.724;23.250;2022-07-10T05:43:58;7.97;;;7.20;;
15049;SDS011;7622;42.724;23.250;2022-07-10T05:46:25;7.00;;;6.50;;
15049;SDS011;7622;42.724;23.250;2022-07-10T05:48:52;6.50;;;6.10;;
15049;SDS011;7622;42.724;23.250;2022-07-10T05:51:19;7.20;;;6.70;;
15049;SDS011;7622;42.724;23.250;2022-07-10T05:53:47;8.63;;;6.57;;
15049;SDS011;7622;42.724;23.250;2022-07-10T05:56:14;6.23;;;5.80;;
15049;SDS011;7622;42.724;23.250;2022-07-10T05:58:40;6.40;;;5.90;;
15049;SDS011;7622;42.724;23.250;2022-07-10T06:01:07;6.67;;;6.07;;
15049;SDS011;7622;42.724;23.250;2022-07-10T06:03:34;6.50;;;6.00;;
15049;SDS011;7622;42.724;23.250;2022-07-10T06:06:01;6.53;;;6.00;;
15049;SDS011;7622;42.724;23.250;2022-07-10T06:08:28;6.80;;;6.30;;
15049;SDS011;7622;42.724;23.250;2022-07-10T06:10:56;6.53;;;6.00;;
15049;SDS011;7622;42.724;23.250;2022-07-10T06:13:23;6.70;;;6.10;;
15049;SDS011;7622;42.724;23.250;2022-07-10T06:15:49;5.93;;;5.43;;
15049;SDS011;7622;42.724;23.250;2022-07-10T06:18:16;8.23;;;5.83;;
15049;SDS011;7622;42.724;23.250;2022-07-10T06:20:43;6.30;;;5.80;;
15049;SDS011;7622;42.724;23.250;2022-07-10T06:23:09;5.63;;;5.23;;
15049;SDS011;7622;42.724;23.250;2022-07-10T06:25:36;5.10;;;4.70;;
15049;SDS011;7622;42.724;23.250;2022-07-10T06:28:04;6.67;;;4.87;;
15049;SDS011;7622;42.724;23.250;2022-07-10T06:30:31;5.43;;;4.93;;
15049;SDS011;7622;42.724;23.250;2022-07-10T06:32:58;6.63;;;4.50;;
15049;SDS011;7622;42.724;23.250;2022-07-10T06:35:25;5.30;;;4.87;;
15049;SDS011;7622;42.724;23.250;2022-07-10T06:37:51;5.10;;;4.57;;
15049;SDS011;7622;42.724;23.250;2022-07-10T06:40:19;5.10;;;4.57;;
15049;SDS011;7622;42.724;23.250;2022-07-10T06:42:46;4.73;;;4.33;;
15049;SDS011;7622;42.724;23.250;2022-07-10T06:45:15;5.77;;;4.20;;
15049;SDS011;7622;42.724;23.250;2022-07-10T06:47:41;4.53;;;4.13;;
15049;SDS011;7622;42.724;23.250;2022-07-10T06:50:24;5.30;;;4.90;;
15049;SDS011;7622;42.724;23.250;2022-07-10T06:52:51;5.23;;;4.57;;
15049;SDS011;7622;42.724;23.250;2022-07-10T06:55:18;5.33;;;4.57;;
15049;SDS011;7622;42.724;23.250;2022-07-10T06:57:46;5.70;;;4.73;;
15049;SDS011;7622;42.724;23.250;2022-07-10T07:00:15;4.50;;;4.20;;
15049;SDS011;7622;42.724;23.250;2022-07-10T07:02:42;5.80;;;4.73;;
15049;SDS011;7622;42.724;23.250;2022-07-10T07:05:09;5.10;;;4.47;;
15049;SDS011;7622;42.724;23.250;2022-07-10T07:07:37;4.97;;;4.60;;
15049;SDS011;7622;42.724;23.250;2022-07-10T07:10:05;4.47;;;4.17;;
15049;SDS011;7622;42.724;23.250;2022-07-10T07:12:33;4.27;;;4.00;;
15049;SDS011;7622;42.724;23.250;2022-07-10T07:15:00;4.87;;;4.40;;
15049;SDS011;7622;42.724;23.250;2022-07-10T07:17:28;6.80;;;4.30;;
15049;SDS011;7622;42.724;23.250;2022-07-10T07:20:00;5.10;;;4.80;;
15049;SDS011;7622;42.724;23.250;2022-07-10T07:22:45;4.87;;;4.30;;
15049;SDS011;7622;42.724;23.250;2022-07-10T07:25:30;5.80;;;4.27;;
15049;SDS011;7622;42.724;23.250;2022-07-10T07:27:56;4.53;;;3.83;;
15049;SDS011;7622;42.724;23.250;2022-07-10T07:30:23;4.80;;;4.17;;
15049;SDS011;7622;42.724;23.250;2022-07-10T07:32:51;9.70;;;4.67;;
15049;SDS011;7622;42.724;23.250;2022-07-10T07:35:18;3.97;;;3.77;;
15049;SDS011;7622;42.724;23.250;2022-07-10T07:37:46;4.00;;;3.70;;
15049;SDS011;7622;42.724;23.250;2022-07-10T07:40:14;4.53;;;3.67;;
15049;SDS011;7622;42.724;23.250;2022-07-10T07:42:41;4.47;;;4.07;;
15049;SDS011;7622;42.724;23.250;2022-07-10T07:45:09;5.67;;;3.50;;
15049;SDS011;7622;42.724;23.250;2022-07-10T07:47:42;3.87;;;3.40;;
15049;SDS011;7622;42.724;23.250;2022-07-10T07:50:11;4.37;;;3.33;;
15049;SDS011;7622;42.724;23.250;2022-07-10T07:52:38;4.43;;;3.63;;
15049;SDS011;7622;42.724;23.250;2022-07-10T07:55:06;5.00;;;3.97;;
15049;SDS011;7622;42.724;23.250;2022-07-10T07:57:33;10.07;;;3.80;;
15049;SDS011;7622;42.724;23.250;2022-07-10T08:00:00;3.57;;;3.27;;
15049;SDS011;7622;42.724;23.250;2022-07-10T08:02:27;3.93;;;3.40;;
15049;SDS011;7622;42.724;23.250;2022-07-10T08:04:54;3.40;;;3.10;;
15049;SDS011;7622;42.724;23.250;2022-07-10T08:07:22;5.37;;;3.30;;
15049;SDS011;7622;42.724;23.250;2022-07-10T08:09:48;4.17;;;3.13;;
15049;SDS011;7622;42.724;23.250;2022-07-10T08:12:16;5.00;;;3.30;;
15049;SDS011;7622;42.724;23.250;2022-07-10T08:14:43;4.40;;;3.00;;
15049;SDS011;7622;42.724;23.250;2022-07-10T08:17:10;5.53;;;3.40;;
15049;SDS011;7622;42.724;23.250;2022-07-10T08:19:36;8.47;;;7.30;;
15049;SDS011;7622;42.724;23.250;2022-07-10T08:22:03;3.33;;;3.10;;
15049;SDS011;7622;42.724;23.250;2022-07-10T08:24:32;4.18;;;2.55;;
15049;SDS011;7622;42.724;23.250;2022-07-10T08:26:58;2.83;;;2.63;;
15049;SDS011;7622;42.724;23.250;2022-07-10T08:29:25;4.20;;;2.80;;
15049;SDS011;7622;42.724;23.250;2022-07-10T08:31:52;4.20;;;2.87;;
15049;SDS011;7622;42.724;23.250;2022-07-10T08:34:18;3.07;;;2.87;;
15049;SDS011;7622;42.724;23.250;2022-07-10T08:36:45;4.70;;;4.30;;
15049;SDS011;7622;42.724;23.250;2022-07-10T08:39:12;5.13;;;3.80;;
15049;SDS011;7622;42.724;23.250;2022-07-10T08:41:41;6.50;;;3.60;;
15049;SDS011;7622;42.724;23.250;2022-07-10T08:44:10;4.17;;;2.90;;
15049;SDS011;7622;42.724;23.250;2022-07-10T08:46:37;4.57;;;3.00;;
15049;SDS011;7622;42.724;23.250;2022-07-10T08:49:05;4.80;;;3.07;;
15049;SDS011;7622;42.724;23.250;2022-07-10T08:51:36;4.00;;;3.00;;
15049;SDS011;7622;42.724;23.250;2022-07-10T08:54:04;3.00;;;2.80;;
15049;SDS011;7622;42.724;23.250;2022-07-10T08:56:32;3.40;;;3.10;;
15049;SDS011;7622;42.724;23.250;2022-07-10T08:59:01;2.97;;;2.78;;
15049;SDS011;7622;42.724;23.250;2022-07-10T09:01:29;5.35;;;3.30;;
15049;SDS011;7622;42.724;23.250;2022-07-10T09:03:57;7.28;;;2.58;;
15049;SDS011;7622;42.724;23.250;2022-07-10T09:06:24;4.38;;;2.70;;
15049;SDS011;7622;42.724;23.250;2022-07-10T09:08:57;2.92;;;2.70;;
15049;SDS011;7622;42.724;23.250;2022-07-10T09:11:25;2.80;;;2.58;;
15049;SDS011;7622;42.724;23.250;2022-07-10T09:13:54;4.03;;;3.05;;
15049;SDS011;7622;42.724;23.250;2022-07-10T09:16:24;4.03;;;3.10;;
15049;SDS011;7622;42.724;23.250;2022-07-10T09:18:52;4.13;;;2.70;;
15049;SDS011;7622;42.724;23.250;2022-07-10T09:21:19;6.87;;;2.80;;
15049;SDS011;7622;42.724;23.250;2022-07-10T09:23:47;2.67;;;2.50;;
15049;SDS011;7622;42.724;23.250;2022-07-10T09:26:14;6.78;;;2.53;;
15049;SDS011;7622;42.724;23.250;2022-07-10T09:28:41;5.75;;;2.75;;
15049;SDS011;7622;42.724;23.250;2022-07-10T09:31:08;2.72;;;2.50;;
15049;SDS011;7622;42.724;23.250;2022-07-10T09:33:36;2.67;;;2.47;;
15049;SDS011;7622;42.724;23.250;2022-07-10T09:36:06;2.73;;;2.53;;
15049;SDS011;7622;42.724;23.250;2022-07-10T09:38:48;3.73;;;2.60;;
15049;SDS011;7622;42.724;23.250;2022-07-10T09:41:17;5.65;;;2.78;;
15049;SDS011;7622;42.724;23.250;2022-07-10T09:43:46;2.85;;;2.67;;
15049;SDS011;7622;42.724;23.250;2022-07-10T09:46:14;5.22;;;3.83;;
15049;SDS011;7622;42.724;23.250;2022-07-10T09:48:42;4.90;;;3.10;;
15049;SDS011;7622;42.724;23.250;2022-07-10T09:51:09;3.85;;;2.60;;
15049;SDS011;7622;42.724;23.250;2022-07-10T09:53:37;3.05;;;2.22;;
15049;SDS011;7622;42.724;23.250;2022-07-10T09:56:06;4.72;;;2.40;;
15049;SDS011;7622;42.724;23.250;2022-07-10T09:58:34;5.13;;;2.80;;
15049;SDS011;7622;42.724;23.250;2022-07-10T10:01:02;3.78;;;2.70;;
15049;SDS011;7622;42.724;23.250;2022-07-10T10:03:33;5.53;;;2.78;;
15049;SDS011;7622;42.724;23.250;2022-07-10T10:06:03;2.60;;;2.40;;
15049;SDS011;7622;42.724;23.250;2022-07-10T10:08:37;2.63;;;2.53;;
15049;SDS011;7622;42.724;23.250;2022-07-10T10:11:14;2.67;;;2.43;;
15049;SDS011;7622;42.724;23.250;2022-07-10T10:13:45;2.83;;;2.60;;
15049;SDS011;7622;42.724;23.250;2022-07-10T10:16:13;2.37;;;2.27;;
15049;SDS011;7622;42.724;23.250;2022-07-10T10:18:41;2.83;;;2.67;;
15049;SDS011;7622;42.724;23.250;2022-07-10T10:21:25;2.23;;;2.03;;
15049;SDS011;7622;42.724;23.250;2022-07-10T10:23:53;4.63;;;2.13;;
15049;SDS011;7622;42.724;23.250;2022-07-10T10:26:21;2.40;;;2.30;;
15049;SDS011;7622;42.724;23.250;2022-07-10T10:28:50;3.70;;;2.10;;
15049;SDS011;7622;42.724;23.250;2022-07-10T10:31:18;3.67;;;2.42;;
15049;SDS011;7622;42.724;23.250;2022-07-10T10:33:46;2.27;;;2.13;;
15049;SDS011;7622;42.724;23.250;2022-07-10T10:39:12;2.50;;;2.40;;
15049;SDS011;7622;42.724;23.250;2022-07-10T10:41:42;4.97;;;2.57;;
15049;SDS011;7622;42.724;23.250;2022-07-10T10:44:27;2.60;;;1.88;;
15049;SDS011;7622;42.724;23.250;2022-07-10T10:47:04;4.40;;;2.37;;
15049;SDS011;7622;42.724;23.250;2022-07-10T10:49:51;3.87;;;2.73;;
15049;SDS011;7622;42.724;23.250;2022-07-10T10:52:23;2.50;;;2.30;;
15049;SDS011;7622;42.724;23.250;2022-07-10T10:55:00;2.87;;;2.37;;
15049;SDS011;7622;42.724;23.250;2022-07-10T10:57:39;3.80;;;2.33;;
15049;SDS011;7622;42.724;23.250;2022-07-10T11:00:13;5.30;;;2.60;;
15049;SDS011;7622;42.724;23.250;2022-07-10T11:02:42;4.43;;;2.58;;
15049;SDS011;7622;42.724;23.250;2022-07-10T11:08:11;5.47;;;2.20;;
15049;SDS011;7622;42.724;23.250;2022-07-10T11:10:39;2.47;;;2.38;;
15049;SDS011;7622;42.724;23.250;2022-07-10T11:13:09;2.83;;;2.10;;
15049;SDS011;7622;42.724;23.250;2022-07-10T11:15:37;2.45;;;2.30;;
15049;SDS011;7622;42.724;23.250;2022-07-10T11:18:05;2.72;;;2.42;;
15049;SDS011;7622;42.724;23.250;2022-07-10T11:20:34;6.13;;;1.90;;
15049;SDS011;7622;42.724;23.250;2022-07-10T11:26:02;3.80;;;2.50;;
15049;SDS011;7622;42.724;23.250;2022-07-10T11:28:47;3.50;;;2.90;;
15049;SDS011;7622;42.724;23.250;2022-07-10T11:31:16;2.70;;;2.50;;
15049;SDS011;7622;42.724;23.250;2022-07-10T11:33:44;4.37;;;3.87;;
15049;SDS011;7622;42.724;23.250;2022-07-10T11:36:11;6.70;;;3.00;;
15049;SDS011;7622;42.724;23.250;2022-07-10T11:38:42;10.13;;;2.83;;
15049;SDS011;7622;42.724;23.250;2022-07-10T11:41:12;2.13;;;2.00;;
15049;SDS011;7622;42.724;23.250;2022-07-10T11:43:46;4.43;;;2.30;;
15049;SDS011;7622;42.724;23.250;2022-07-10T11:46:15;6.63;;;2.57;;
15049;SDS011;7622;42.724;23.250;2022-07-10T11:48:42;3.37;;;2.90;;
15049;SDS011;7622;42.724;23.250;2022-07-10T11:51:21;2.90;;;2.60;;
15049;SDS011;7622;42.724;23.250;2022-07-10T11:53:58;2.50;;;2.23;;
15049;SDS011;7622;42.724;23.250;2022-07-10T11:56:26;2.27;;;2.17;;
15049;SDS011;7622;42.724;23.250;2022-07-10T11:58:54;2.70;;;2.13;;
15049;SDS011;7622;42.724;23.250;2022-07-10T12:01:25;4.53;;;2.00;;
15049;SDS011;7622;42.724;23.250;2022-07-10T12:03:58;4.00;;;2.17;;
15049;SDS011;7622;42.724;23.250;2022-07-10T12:06:27;3.87;;;2.90;;
15049;SDS011;7622;42.724;23.250;2022-07-10T12:08:55;3.00;;;2.80;;
15049;SDS011;7622;42.724;23.250;2022-07-10T12:11:27;4.60;;;2.40;;
15049;SDS011;7622;42.724;23.250;2022-07-10T12:13:54;3.90;;;2.20;;
15049;SDS011;7622;42.724;23.250;2022-07-10T12:16:35;5.83;;;2.67;;
15049;SDS011;7622;42.724;23.250;2022-07-10T12:19:03;4.63;;;2.43;;
15049;SDS011;7622;42.724;23.250;2022-07-10T12:21:30;4.13;;;2.00;;
15049;SDS011;7622;42.724;23.250;2022-07-10T12:23:59;3.87;;;2.30;;
15049;SDS011;7622;42.724;23.250;2022-07-10T12:26:31;2.00;;;1.90;;
15049;SDS011;7622;42.724;23.250;2022-07-10T12:28:59;2.30;;;1.80;;
15049;SDS011;7622;42.724;23.250;2022-07-10T12:31:27;2.60;;;2.10;;
15049;SDS011;7622;42.724;23.250;2022-07-10T12:33:58;6.17;;;1.87;;
15049;SDS011;7622;42.724;23.250;2022-07-10T12:36:40;2.17;;;1.97;;
15049;SDS011;7622;42.724;23.250;2022-07-10T12:39:10;1.80;;;1.57;;
15049;SDS011;7622;42.724;23.250;2022-07-10T12:44:33;1.50;;;1.40;;
15049;SDS011;7622;42.724;23.250;2022-07-10T12:47:04;2.30;;;1.77;;
15049;SDS011;7622;42.724;23.250;2022-07-10T12:49:49;3.67;;;1.80;;
15049;SDS011;7622;42.724;23.250;2022-07-10T12:52:23;5.63;;;1.70;;
15049;SDS011;7622;42.724;23.250;2022-07-10T12:55:10;2.23;;;1.60;;
15049;SDS011;7622;42.724;23.250;2022-07-10T12:57:47;3.77;;;1.23;;
15049;SDS011;7622;42.724;23.250;2022-07-10T13:00:18;4.47;;;1.53;;
15049;SDS011;7622;42.724;23.250;2022-07-10T13:02:47;1.70;;;1.10;;
15049;SDS011;7622;42.724;23.250;2022-07-10T13:05:25;6.57;;;2.30;;
15049;SDS011;7622;42.724;23.250;2022-07-10T13:08:03;3.30;;;2.13;;
15049;SDS011;7622;42.724;23.250;2022-07-10T13:10:33;5.70;;;1.33;;
15049;SDS011;7622;42.724;23.250;2022-07-10T13:13:01;2.40;;;1.50;;
15049;SDS011;7622;42.724;23.250;2022-07-10T13:15:28;2.33;;;1.83;;
15049;SDS011;7622;42.724;23.250;2022-07-10T13:17:55;3.67;;;1.17;;
15049;SDS011;7622;42.724;23.250;2022-07-10T13:20:22;1.23;;;1.17;;
15049;SDS011;7622;42.724;23.250;2022-07-10T13:22:49;2.23;;;1.37;;
15049;SDS011;7622;42.724;23.250;2022-07-10T13:25:15;4.37;;;1.40;;
15049;SDS011;7622;42.724;23.250;2022-07-10T13:27:43;3.43;;;1.70;;
15049;SDS011;7622;42.724;23.250;2022-07-10T13:30:11;2.17;;;1.50;;
15049;SDS011;7622;42.724;23.250;2022-07-10T13:32:38;1.90;;;1.13;;
15049;SDS011;7622;42.724;23.250;2022-07-10T13:35:05;1.70;;;1.43;;
15049;SDS011;7622;42.724;23.250;2022-07-10T13:37:32;4.20;;;1.40;;
15049;SDS011;7622;42.724;23.250;2022-07-10T13:39:59;5.50;;;1.80;;
15049;SDS011;7622;42.724;23.250;2022-07-10T13:42:25;2.63;;;1.53;;
15049;SDS011;7622;42.724;23.250;2022-07-10T13:44:54;1.63;;;1.40;;
15049;SDS011;7622;42.724;23.250;2022-07-10T13:47:21;1.93;;;1.80;;
15049;SDS011;7622;42.724;23.250;2022-07-10T13:49:48;1.73;;;1.37;;
15049;SDS011;7622;42.724;23.250;2022-07-10T13:52:15;2.80;;;1.40;;
15049;SDS011;7622;42.724;23.250;2022-07-10T13:54:41;1.90;;;1.67;;
15049;SDS011;7622;42.724;23.250;2022-07-10T13:57:08;2.27;;;1.67;;
15049;SDS011;7622;42.724;23.250;2022-07-10T13:59:35;1.60;;;1.50;;
15049;SDS011;7622;42.724;23.250;2022-07-10T14:02:03;2.40;;;1.80;;
15049;SDS011;7622;42.724;23.250;2022-07-10T14:04:30;1.80;;;1.40;;
15049;SDS011;7622;42.724;23.250;2022-07-10T14:06:57;4.57;;;1.70;;
15049;SDS011;7622;42.724;23.250;2022-07-10T14:09:24;2.40;;;1.60;;
15049;SDS011;7622;42.724;23.250;2022-07-10T14:11:51;4.37;;;1.87;;
15049;SDS011;7622;42.724;23.250;2022-07-10T14:14:18;3.00;;;2.10;;
15049;SDS011;7622;42.724;23.250;2022-07-10T14:16:44;3.10;;;2.90;;
15049;SDS011;7622;42.724;23.250;2022-07-10T14:19:13;7.13;;;2.07;;
15049;SDS011;7622;42.724;23.250;2022-07-10T14:21:39;5.20;;;2.33;;
15049;SDS011;7622;42.724;23.250;2022-07-10T14:24:06;1.93;;;1.50;;
15049;SDS011;7622;42.724;23.250;2022-07-10T14:26:33;2.17;;;1.50;;
15049;SDS011;7622;42.724;23.250;2022-07-10T14:29:00;4.53;;;1.70;;
15049;SDS011;7622;42.724;23.250;2022-07-10T14:31:28;2.10;;;2.00;;
15049;SDS011;7622;42.724;23.250;2022-07-10T14:33:54;2.93;;;1.50;;
15049;SDS011;7622;42.724;23.250;2022-07-10T14:36:23;3.10;;;1.57;;
15049;SDS011;7622;42.724;23.250;2022-07-10T14:38:51;1.50;;;1.40;;
15049;SDS011;7622;42.724;23.250;2022-07-10T14:41:18;6.30;;;2.30;;
15049;SDS011;7622;42.724;23.250;2022-07-10T14:43:45;5.40;;;1.80;;
15049;SDS011;7622;42.724;23.250;2022-07-10T14:46:12;4.83;;;1.50;;
15049;SDS011;7622;42.724;23.250;2022-07-10T14:48:39;2.23;;;1.80;;
15049;SDS011;7622;42.724;23.250;2022-07-10T14:51:06;2.00;;;1.80;;
15049;SDS011;7622;42.724;23.250;2022-07-10T14:53:35;1.47;;;1.37;;
15049;SDS011;7622;42.724;23.250;2022-07-10T14:56:02;2.67;;;1.50;;